Jussiape, Brazil
Current Conditions -  °F | °C
As of 7:00 AM on Monday 29 Dec 2014 (Local Time) from SBQV Reporting Station
Few Clouds Few Clouds  
Wind Chill: 73°   Ceiling: Unl
Heat Index: 73°   Visibility: 6mi
Dew Point: 68°   Wind: 1mph
Humidity: 83%   Direction: 190°S
Pressure: 30.12"   Gusts: NA
Location:  13.51°S, 41.62°W
Report Text: SBQV 291000Z 19001KT 9999 FEW010 23/20 Q1020
Loading
Personal Weather Stations






























Interactive Weather Map New forecast layout! Learn more

10-Day Weather Forecast

Advertisements
Track Severe Weather on mobile